West Warwick, Rhode Island
Current Conditions -  °F | °C
As of 2:51 AM on Thursday 29 Jan 2015 (Local Time) from KPVD Reporting Station
Clear Clear  
Wind Chill:   Ceiling: Unl
Heat Index:   Visibility: 10mi
Dew Point: -1°   Wind: 0mph
Humidity: 70%   Direction: NA
Pressure: 30.28"   Gusts: NA
Location:  41.71°N, 71.52°W
Report Text: KPVD 290751Z AUTO 00000KT 10SM CLR M14/M18 A3028 RMK AO2 SLP254 T11391183
Loading
Personal Weather Stations






























Interactive Weather Map New forecast layout! Learn more

10-Day Weather Forecast

Advertisements
Track Severe Weather on mobile